Aeroporto :
LOGIN :

Iscrizione | Disclaimer

   EN    FR    IT 

 










Sommario :    VFR   VFR Marginale   IFR   IFR Intensivo   IFR Molto Intensivo
Visibilità : 
Base nubi : 
>= 8 km
>= 3000ft
5 / 8 km
1000 / 3000 ft
1500m / 5 km
500 / 1000 ft
800 / 1500m
200 / 500 ft
< 800m
< 200 ft
Simboli :   Temporali  Nebbia  Neve Forte  Precipitazioni Forti  Vento > 20 kt
SIGMETs :   Varie  Temporali  Ghiacco  Turbolenza  Onda orograficha  Ceneri Vulcaniche







- Altitudine del aeroporto : 648 ft
- Codice IATA : INI


LYNI - Nis Constantine

ULTIMO METAR :
  • 162030Z 04004KT 9999 FEW040 24/18 Q1013 NOSIG

METARs OBSOLETI :
  • 162000Z 12003KT 040V200 9999 SCT040 25/17 Q1012 NOSIG
  • 161930Z 05003KT 020V080 9999 FEW040 26/17 Q1012 NOSIG
  • 161900Z 08007KT 040V110 CAVOK 27/18 Q1012 NOSIG
  • 161830Z 09005KT 060V130 CAVOK 27/18 Q1012 NOSIG
  • 161800Z 08005KT 050V110 CAVOK 28/18 Q1012 NOSIG

TAF TAF LYNI
Valido dal 16 a 18 ore il 17 a 18 ore UTC


161700Z 1618/1718 06006KT 9999 SCT040 TX30/1713Z TN17/1703Z
BECMG 1706/1708 33012KT
TEMPO 1709/1717 33015G30KT 5000 TSRA SCT030CB BKN040
Nessun NOTAM noto per questo aeroporto.



MetMap, La meteo Aeronautica in un colpo d'occhio ! - Copyright ORBIFLY Dicembre 2007 - Disclaimer

ORBIFLY MET'MAP TEAM :

Programmazione e sviluppo : Alexandra Zaïnal
Concezione e sviluppo : Baudouin d'Aumeries
Co-Programmazione e sviluppo : Marc-Olivier Méhu
Supporto tecnico e logistico : Manuel Goepfert
Aiuto per la traduzione : Arnaldo La Scala

Contatto : metmap@orbifly.com




FONTI E CREDITI :

   NOAA